Time;durP1;ratioP1;P1;durP2;ratioP2;P2;SDS_P1;SDS_P2;PMS_P1;PMS_P2;Temp;Humidity;BMP_temperature;BMP_pressure;BME280_temperature;BME280_humidity;BME280_pressure;Samples;Min_cycle;Max_cycle;Signal;HPM_P1;HPM_P2
2022/03/22 00:00:46;;;;;;;14.57;11.77;;;;;;;;;;5074910;28;20203;-58
2022/03/22 00:03:13;;;;;;;16.80;12.03;;;;;;;;;;5074530;28;20434;-57
2022/03/22 00:05:42;;;;;;;13.47;11.37;;;;;;;;;;5074722;28;20270;-57
2022/03/22 00:08:08;;;;;;;14.70;11.93;;;;;;;;;;5074417;28;20464;-57
2022/03/22 00:10:34;;;;;;;12.80;10.73;;;;;;;;;;5074620;28;20199;-58
2022/03/22 00:13:00;;;;;;;14.67;11.93;;;;;;;;;;5074428;28;20536;-56
2022/03/22 00:15:26;;;;;;;15.87;11.50;;;;;;;;;;5074616;28;20932;-57
2022/03/22 00:17:52;;;;;;;17.37;12.23;;;;;;;;;;5074520;28;20195;-56
2022/03/22 00:20:18;;;;;;;14.93;11.80;;;;;;;;;;5074255;28;20202;-56
2022/03/22 00:22:46;;;;;;;15.07;12.30;;;;;;;;;;5074886;28;20195;-56
2022/03/22 00:25:12;;;;;;;20.83;12.50;;;;;;;;;;5072225;28;20709;-56
2022/03/22 00:27:54;;;;;;;18.23;11.90;;;;;;;;;;5074175;28;20457;-56
2022/03/22 00:30:21;;;;;;;15.00;12.07;;;;;;;;;;5072187;28;20195;-58
2022/03/22 00:32:47;;;;;;;15.57;12.50;;;;;;;;;;5074171;28;20224;-57
2022/03/22 00:35:13;;;;;;;15.57;11.80;;;;;;;;;;5074085;28;20464;-57
2022/03/22 00:37:42;;;;;;;16.30;11.90;;;;;;;;;;5074274;28;20901;-57
2022/03/22 00:40:17;;;;;;;15.43;12.37;;;;;;;;;;5073840;28;20219;-57
2022/03/22 00:42:46;;;;;;;14.93;11.70;;;;;;;;;;5074273;28;20592;-58
2022/03/22 00:45:12;;;;;;;14.50;11.70;;;;;;;;;;5072216;28;20501;-57
2022/03/22 00:47:38;;;;;;;13.80;11.57;;;;;;;;;;5073942;28;20457;-56
2022/03/22 00:50:04;;;;;;;12.53;11.07;;;;;;;;;;5073472;28;20430;-57
2022/03/22 00:52:32;;;;;;;13.67;11.50;;;;;;;;;;5073614;28;20223;-56
2022/03/22 00:54:57;;;;;;;14.50;10.93;;;;;;;;;;5073295;28;20479;-57
2022/03/22 00:57:25;;;;;;;17.87;13.30;;;;;;;;;;5073751;28;20446;-56
2022/03/22 01:00:06;;;;;;;55.73;22.43;;;;;;;;;;5073750;28;20202;-56
2022/03/22 01:02:34;;;;;;;69.63;24.67;;;;;;;;;;5073784;28;20421;-57
2022/03/22 01:05:00;;;;;;;49.50;22.77;;;;;;;;;;5073523;28;20434;-56
2022/03/22 01:07:27;;;;;;;27.77;16.80;;;;;;;;;;5073458;28;20438;-56
2022/03/22 01:09:53;;;;;;;22.30;15.70;;;;;;;;;;5073484;28;20430;-56
2022/03/22 01:12:19;;;;;;;24.73;16.13;;;;;;;;;;5073285;28;20477;-58
2022/03/22 01:14:46;;;;;;;26.70;16.53;;;;;;;;;;5071794;28;20468;-59
2022/03/22 01:17:12;;;;;;;21.23;14.27;;;;;;;;;;5073393;28;20802;-57
2022/03/22 01:19:39;;;;;;;18.53;14.53;;;;;;;;;;5073297;28;20422;-59
2022/03/22 01:22:05;;;;;;;21.13;14.60;;;;;;;;;;5073078;28;20435;-58
2022/03/22 01:24:31;;;;;;;20.13;14.40;;;;;;;;;;5073131;28;20553;-57
2022/03/22 01:26:57;;;;;;;19.53;14.50;;;;;;;;;;5073211;28;20438;-58
2022/03/22 01:29:23;;;;;;;18.80;14.20;;;;;;;;;;5072908;28;20845;-57
2022/03/22 01:31:51;;;;;;;17.40;13.60;;;;;;;;;;5073031;28;20228;-57
2022/03/22 01:34:17;;;;;;;17.80;13.87;;;;;;;;;;5072948;28;20204;-58
2022/03/22 01:36:43;;;;;;;19.23;14.43;;;;;;;;;;5073097;28;20430;-58
2022/03/22 01:39:09;;;;;;;21.43;15.17;;;;;;;;;;5072809;28;20203;-57
2022/03/22 01:41:35;;;;;;;18.53;14.33;;;;;;;;;;5072842;28;20649;-58
2022/03/22 01:44:01;;;;;;;16.43;13.77;;;;;;;;;;5072929;28;20974;-59
2022/03/22 01:46:27;;;;;;;19.23;14.93;;;;;;;;;;5072864;28;21081;-59
2022/03/22 01:48:55;;;;;;;16.57;13.87;;;;;;;;;;5072866;28;20512;-57
2022/03/22 01:51:22;;;;;;;16.70;13.13;;;;;;;;;;5072534;28;20964;-57
2022/03/22 01:53:48;;;;;;;18.57;14.03;;;;;;;;;;5072750;28;20509;-58
2022/03/22 01:56:14;;;;;;;19.90;12.53;;;;;;;;;;5072463;28;20446;-57
2022/03/22 01:58:40;;;;;;;18.57;14.67;;;;;;;;;;5072790;28;20441;-58
2022/03/22 02:06:37;;;;;;;15.30;12.93;;;;;;;;;;5071911;28;20589;-59
2022/03/22 02:09:04;;;;;;;17.47;14.87;;;;;;;;;;5072184;28;20487;-59
2022/03/22 02:11:30;;;;;;;19.90;14.87;;;;;;;;;;5072449;28;20474;-60
2022/03/22 02:13:56;;;;;;;17.67;13.63;;;;;;;;;;5072456;28;20785;-58
2022/03/22 02:16:22;;;;;;;16.93;13.60;;;;;;;;;;5072324;28;20437;-58
2022/03/22 02:18:49;;;;;;;18.67;14.33;;;;;;;;;;5072478;28;20212;-57
2022/03/22 02:21:16;;;;;;;17.73;13.20;;;;;;;;;;5072412;28;20513;-57
2022/03/22 02:23:51;;;;;;;16.87;14.10;;;;;;;;;;5072140;28;20481;-57
2022/03/22 02:26:17;;;;;;;17.53;13.83;;;;;;;;;;5072259;28;20964;-57
2022/03/22 02:28:43;;;;;;;20.47;14.00;;;;;;;;;;5072274;28;21002;-58
2022/03/22 02:31:09;;;;;;;20.60;13.77;;;;;;;;;;5072107;28;20555;-58
2022/03/22 02:33:35;;;;;;;16.93;13.30;;;;;;;;;;5072213;28;20540;-58
2022/03/22 02:36:01;;;;;;;16.27;13.50;;;;;;;;;;5072315;28;20487;-59
2022/03/22 02:38:27;;;;;;;17.90;14.17;;;;;;;;;;5072207;28;20440;-58
2022/03/22 02:40:55;;;;;;;14.30;12.80;;;;;;;;;;5072117;28;20473;-59
2022/03/22 02:43:21;;;;;;;15.73;13.43;;;;;;;;;;5072048;28;20495;-58
2022/03/22 02:45:47;;;;;;;19.80;15.00;;;;;;;;;;5072127;28;20446;-58
2022/03/22 02:48:15;;;;;;;17.27;13.23;;;;;;;;;;5071980;28;20223;-58
2022/03/22 02:50:41;;;;;;;17.20;14.37;;;;;;;;;;5071970;28;20669;-59
2022/03/22 02:53:07;;;;;;;16.33;13.30;;;;;;;;;;5071797;28;20526;-58
2022/03/22 02:55:33;;;;;;;16.40;13.73;;;;;;;;;;5071822;28;20438;-59
2022/03/22 02:58:00;;;;;;;16.73;13.50;;;;;;;;;;5072026;28;20200;-58
2022/03/22 03:00:26;;;;;;;16.20;13.97;;;;;;;;;;5071861;28;20445;-59
2022/03/22 03:02:53;;;;;;;17.20;13.73;;;;;;;;;;5071721;28;20442;-59
2022/03/22 03:05:20;;;;;;;19.10;13.30;;;;;;;;;;5071687;28;20436;-59
2022/03/22 03:07:47;;;;;;;20.37;13.83;;;;;;;;;;5072092;28;20533;-58
2022/03/22 03:10:13;;;;;;;18.57;12.83;;;;;;;;;;5071893;28;20462;-59
2022/03/22 03:12:39;;;;;;;17.50;13.47;;;;;;;;;;5071811;28;20531;-58
2022/03/22 03:15:11;;;;;;;17.00;13.17;;;;;;;;;;5070015;28;20453;-58
2022/03/22 03:17:37;;;;;;;19.30;14.90;;;;;;;;;;5074658;28;20441;-58
2022/03/22 03:20:04;;;;;;;15.83;13.17;;;;;;;;;;5075697;28;20430;-59
2022/03/22 03:22:30;;;;;;;21.17;15.07;;;;;;;;;;5075564;28;20896;-58
2022/03/22 03:24:56;;;;;;;18.83;14.20;;;;;;;;;;5075384;28;20484;-58
2022/03/22 03:27:22;;;;;;;19.93;14.00;;;;;;;;;;5075618;28;20697;-58
2022/03/22 03:29:48;;;;;;;16.80;12.90;;;;;;;;;;5075447;28;20203;-58
2022/03/22 03:32:15;;;;;;;15.60;12.80;;;;;;;;;;5075401;28;20231;-58
2022/03/22 03:34:41;;;;;;;16.07;13.03;;;;;;;;;;5075526;28;20521;-58
2022/03/22 03:37:07;;;;;;;16.93;12.50;;;;;;;;;;5075364;28;20457;-58
2022/03/22 03:39:34;;;;;;;17.33;13.80;;;;;;;;;;5075353;28;20442;-58
2022/03/22 03:42:01;;;;;;;15.47;13.53;;;;;;;;;;5075187;28;20805;-58
2022/03/22 03:47:15;;;;;;;13.80;12.27;;;;;;;;;;5075218;28;20493;-58
2022/03/22 03:49:42;;;;;;;16.83;13.13;;;;;;;;;;5075202;28;20445;-58
2022/03/22 03:52:09;;;;;;;16.47;13.90;;;;;;;;;;5074885;28;20833;-58
2022/03/22 03:54:35;;;;;;;15.67;12.83;;;;;;;;;;5074966;28;20430;-58
2022/03/22 03:57:01;;;;;;;15.77;13.13;;;;;;;;;;5075010;28;20936;-58
2022/03/22 03:59:27;;;;;;;16.70;13.00;;;;;;;;;;5075056;28;20222;-58
2022/03/22 04:01:54;;;;;;;17.57;12.97;;;;;;;;;;5075062;28;20430;-58
2022/03/22 04:04:21;;;;;;;15.47;12.87;;;;;;;;;;5074666;28;20477;-58
2022/03/22 04:06:47;;;;;;;16.27;13.40;;;;;;;;;;5074872;28;20440;-58
2022/03/22 04:09:13;;;;;;;15.90;13.27;;;;;;;;;;5074708;28;20513;-58
2022/03/22 04:11:39;;;;;;;17.93;13.57;;;;;;;;;;5074708;28;20515;-58
2022/03/22 04:14:06;;;;;;;16.77;13.53;;;;;;;;;;5074836;28;20437;-58
2022/03/22 04:16:32;;;;;;;17.30;13.20;;;;;;;;;;5074727;28;20441;-58
2022/03/22 04:18:58;;;;;;;17.83;14.37;;;;;;;;;;5074696;28;20477;-58
2022/03/22 04:21:25;;;;;;;19.83;13.60;;;;;;;;;;5074527;28;20936;-58
2022/03/22 04:23:51;;;;;;;17.13;13.67;;;;;;;;;;5074153;28;20292;-58
2022/03/22 04:26:17;;;;;;;15.73;13.40;;;;;;;;;;5074057;28;20433;-58
2022/03/22 04:34:13;;;;;;;16.97;14.13;;;;;;;;;;5074219;28;20421;-59
2022/03/22 04:36:41;;;;;;;15.47;13.73;;;;;;;;;;5074154;28;20430;-58
2022/03/22 04:39:07;;;;;;;15.80;13.40;;;;;;;;;;5073963;28;20192;-58
2022/03/22 04:41:33;;;;;;;14.90;12.80;;;;;;;;;;5073941;28;20422;-58
2022/03/22 04:43:59;;;;;;;18.87;14.33;;;;;;;;;;5074047;28;20499;-58
2022/03/22 04:46:26;;;;;;;16.20;14.10;;;;;;;;;;5074031;28;20433;-58
2022/03/22 04:48:52;;;;;;;17.10;12.57;;;;;;;;;;5073927;28;20271;-58
2022/03/22 04:56:48;;;;;;;18.43;13.40;;;;;;;;;;5073805;28;20421;-58
2022/03/22 04:59:15;;;;;;;20.17;13.90;;;;;;;;;;5073648;28;20445;-58
2022/03/22 05:01:42;;;;;;;17.40;13.70;;;;;;;;;;5073783;28;20195;-58
2022/03/22 05:04:08;;;;;;;14.70;12.47;;;;;;;;;;5073424;28;20456;-58
2022/03/22 05:06:37;;;;;;;16.60;13.13;;;;;;;;;;5073768;28;20509;-58
2022/03/22 05:09:04;;;;;;;18.83;14.80;;;;;;;;;;5073318;28;20434;-58
2022/03/22 05:11:33;;;;;;;14.77;13.10;;;;;;;;;;5073532;28;20466;-58
2022/03/22 05:13:59;;;;;;;16.73;13.33;;;;;;;;;;5073476;28;20436;-59
2022/03/22 05:16:25;;;;;;;20.23;14.33;;;;;;;;;;5073137;28;20544;-58
2022/03/22 05:18:51;;;;;;;22.57;14.10;;;;;;;;;;5073199;28;20809;-59
2022/03/22 05:21:17;;;;;;;14.93;13.23;;;;;;;;;;5073092;28;20827;-59
2022/03/22 05:23:45;;;;;;;17.57;12.73;;;;;;;;;;5073338;28;20488;-58
2022/03/22 05:26:12;;;;;;;17.63;13.70;;;;;;;;;;5073100;28;20434;-59
2022/03/22 05:28:39;;;;;;;16.23;13.57;;;;;;;;;;5073277;28;20448;-59
2022/03/22 05:31:05;;;;;;;14.37;12.33;;;;;;;;;;5073070;28;20846;-59
2022/03/22 05:33:31;;;;;;;15.67;12.83;;;;;;;;;;5073052;28;20773;-58
2022/03/22 05:35:57;;;;;;;20.33;14.13;;;;;;;;;;5072963;28;20446;-58
2022/03/22 05:38:25;;;;;;;16.67;13.30;;;;;;;;;;5072785;28;20510;-58
2022/03/22 05:40:51;;;;;;;17.57;12.70;;;;;;;;;;5072769;28;20438;-58
2022/03/22 05:43:18;;;;;;;18.33;13.20;;;;;;;;;;5072705;28;20438;-59
2022/03/22 05:45:46;;;;;;;18.20;14.03;;;;;;;;;;5072893;28;20529;-58
2022/03/22 05:48:12;;;;;;;17.97;13.57;;;;;;;;;;5072638;28;20444;-59
2022/03/22 05:50:38;;;;;;;19.77;13.70;;;;;;;;;;5072660;28;20442;-58
2022/03/22 05:53:04;;;;;;;17.53;13.17;;;;;;;;;;5072735;28;20223;-59
2022/03/22 05:55:30;;;;;;;21.03;14.67;;;;;;;;;;5072569;28;20198;-58
2022/03/22 05:57:56;;;;;;;20.27;13.80;;;;;;;;;;5072707;28;20445;-59
2022/03/22 06:00:24;;;;;;;17.07;13.50;;;;;;;;;;5072612;28;20199;-59
2022/03/22 06:02:50;;;;;;;18.27;14.30;;;;;;;;;;5072489;28;20249;-58
2022/03/22 06:05:16;;;;;;;16.47;13.80;;;;;;;;;;5072401;28;20453;-58
2022/03/22 06:07:43;;;;;;;18.80;14.20;;;;;;;;;;5072347;28;20220;-58
2022/03/22 06:10:09;;;;;;;16.10;13.60;;;;;;;;;;5072140;28;20495;-58
2022/03/22 06:12:39;;;;;;;16.67;14.83;;;;;;;;;;5071977;28;20486;-58
2022/03/22 06:15:15;;;;;;;16.10;13.40;;;;;;;;;;5072193;28;20432;-58
2022/03/22 06:17:44;;;;;;;14.93;12.97;;;;;;;;;;5071799;28;20442;-59
2022/03/22 06:20:11;;;;;;;16.87;13.13;;;;;;;;;;5071790;28;20445;-59
2022/03/22 06:22:37;;;;;;;17.90;12.77;;;;;;;;;;5072093;28;20499;-59
2022/03/22 06:25:03;;;;;;;19.47;13.57;;;;;;;;;;5071696;28;20818;-58
2022/03/22 06:27:29;;;;;;;15.03;13.33;;;;;;;;;;5072003;28;20537;-58
2022/03/22 06:29:55;;;;;;;15.17;13.00;;;;;;;;;;5071984;28;20467;-59
2022/03/22 06:32:21;;;;;;;18.20;13.70;;;;;;;;;;5071746;28;20568;-59
2022/03/22 06:34:51;;;;;;;16.23;13.70;;;;;;;;;;5072036;28;20662;-59
2022/03/22 06:37:16;;;;;;;16.83;13.50;;;;;;;;;;5071782;28;20735;-59
2022/03/22 06:39:42;;;;;;;17.33;13.60;;;;;;;;;;5071888;28;20430;-58
2022/03/22 06:42:09;;;;;;;16.43;12.93;;;;;;;;;;5071846;28;20559;-60
2022/03/22 06:44:37;;;;;;;14.67;12.43;;;;;;;;;;5071985;28;20297;-58
2022/03/22 06:47:04;;;;;;;15.90;13.73;;;;;;;;;;5071511;28;20437;-59
2022/03/22 06:49:29;;;;;;;15.93;12.70;;;;;;;;;;5071756;28;20945;-58
2022/03/22 06:51:57;;;;;;;14.30;12.27;;;;;;;;;;5071148;28;20470;-58
2022/03/22 06:54:23;;;;;;;16.17;12.90;;;;;;;;;;5071584;28;20207;-60
2022/03/22 06:56:49;;;;;;;16.63;12.93;;;;;;;;;;5071965;28;20438;-59
2022/03/22 06:59:16;;;;;;;15.57;12.73;;;;;;;;;;5071820;28;20524;-58
2022/03/22 07:01:42;;;;;;;15.97;12.37;;;;;;;;;;5071825;28;20199;-57
2022/03/22 07:04:08;;;;;;;19.53;13.13;;;;;;;;;;5071475;28;20512;-59
2022/03/22 07:06:34;;;;;;;17.67;12.63;;;;;;;;;;5071423;28;20518;-58
2022/03/22 07:09:02;;;;;;;15.93;12.53;;;;;;;;;;5071454;28;20195;-58
2022/03/22 07:14:12;;;;;;;14.87;13.27;;;;;;;;;;5071412;28;20425;-58
2022/03/22 07:16:38;;;;;;;19.00;12.50;;;;;;;;;;5071317;28;20807;-57
2022/03/22 07:19:05;;;;;;;14.87;13.07;;;;;;;;;;5071173;28;20200;-58
2022/03/22 07:21:31;;;;;;;14.60;12.27;;;;;;;;;;5071409;28;20204;-58
2022/03/22 07:23:57;;;;;;;16.60;12.77;;;;;;;;;;5071201;28;20353;-58
2022/03/22 07:26:25;;;;;;;15.30;12.30;;;;;;;;;;5071297;28;20706;-59
2022/03/22 07:28:51;;;;;;;18.67;13.87;;;;;;;;;;5071462;28;20230;-58
2022/03/22 07:31:17;;;;;;;18.53;13.33;;;;;;;;;;5071143;28;20204;-58
2022/03/22 07:33:43;;;;;;;19.80;14.47;;;;;;;;;;5071414;28;20195;-59
2022/03/22 07:36:09;;;;;;;18.40;14.53;;;;;;;;;;5071144;28;20204;-59
2022/03/22 07:38:35;;;;;;;16.53;13.60;;;;;;;;;;5071171;28;20207;-58
2022/03/22 07:41:00;;;;;;;18.33;13.77;;;;;;;;;;5071384;28;20203;-57
2022/03/22 07:43:31;;;;;;;16.00;12.70;;;;;;;;;;5071232;28;20261;-58
2022/03/22 07:45:57;;;;;;;15.33;13.70;;;;;;;;;;5071264;28;20207;-58
2022/03/22 07:48:23;;;;;;;15.37;13.23;;;;;;;;;;5070919;28;20208;-61
2022/03/22 07:53:33;;;;;;;16.77;12.83;;;;;;;;;;5070987;28;20218;-58
2022/03/22 07:55:59;;;;;;;17.50;13.07;;;;;;;;;;5071187;28;20211;-58
2022/03/22 07:58:26;;;;;;;17.73;13.20;;;;;;;;;;5071127;28;20214;-58
2022/03/22 08:00:53;;;;;;;17.33;12.90;;;;;;;;;;5071150;28;20656;-57
2022/03/22 08:03:19;;;;;;;17.73;12.30;;;;;;;;;;5071730;28;20192;-58
2022/03/22 08:05:46;;;;;;;16.10;11.93;;;;;;;;;;5074526;28;20199;-59
2022/03/22 08:08:12;;;;;;;16.57;13.03;;;;;;;;;;5074504;28;20256;-60
2022/03/22 08:10:39;;;;;;;15.00;12.57;;;;;;;;;;5074514;28;20561;-58
2022/03/22 08:13:08;;;;;;;13.90;11.73;;;;;;;;;;5074434;28;20223;-57
2022/03/22 08:15:35;;;;;;;16.50;12.80;;;;;;;;;;5074405;28;20200;-57
2022/03/22 08:18:02;;;;;;;18.13;13.00;;;;;;;;;;5074394;28;20283;-54
2022/03/22 08:20:30;;;;;;;14.70;12.33;;;;;;;;;;5074149;28;20204;-54
2022/03/22 08:22:58;;;;;;;17.07;12.57;;;;;;;;;;5074028;28;20230;-56
2022/03/22 08:25:25;;;;;;;18.20;12.63;;;;;;;;;;5073945;28;20239;-58
2022/03/22 08:27:51;;;;;;;16.53;12.63;;;;;;;;;;5074092;28;20199;-57
2022/03/22 08:30:20;;;;;;;14.33;12.27;;;;;;;;;;5074234;28;20566;-56
2022/03/22 08:32:46;;;;;;;20.60;12.97;;;;;;;;;;5074182;28;20227;-56
2022/03/22 08:35:14;;;;;;;16.27;12.80;;;;;;;;;;5073848;28;20335;-57
2022/03/22 08:37:40;;;;;;;17.37;13.03;;;;;;;;;;5074021;28;20203;-59
2022/03/22 08:40:06;;;;;;;16.70;12.50;;;;;;;;;;5074068;28;20615;-57
2022/03/22 08:42:32;;;;;;;16.10;12.50;;;;;;;;;;5074056;28;20196;-54
2022/03/22 08:44:59;;;;;;;14.07;12.40;;;;;;;;;;5074086;28;20254;-55
2022/03/22 08:47:26;;;;;;;15.27;13.10;;;;;;;;;;5073889;28;20278;-56
2022/03/22 08:49:52;;;;;;;15.90;12.47;;;;;;;;;;5074197;28;20200;-56
2022/03/22 08:52:20;;;;;;;16.83;13.03;;;;;;;;;;5073801;28;20215;-55
2022/03/22 08:54:46;;;;;;;18.17;13.63;;;;;;;;;;5073972;28;20200;-55
2022/03/22 08:57:12;;;;;;;16.87;12.70;;;;;;;;;;5073865;28;20195;-57
2022/03/22 08:59:38;;;;;;;17.67;13.97;;;;;;;;;;5073799;28;20222;-57
2022/03/22 09:02:04;;;;;;;14.10;12.60;;;;;;;;;;5073639;28;20199;-57
2022/03/22 09:07:15;;;;;;;18.00;13.90;;;;;;;;;;5073653;28;20297;-57
2022/03/22 09:09:42;;;;;;;15.17;13.57;;;;;;;;;;5073445;28;20731;-57
2022/03/22 09:12:09;;;;;;;15.00;13.40;;;;;;;;;;5073512;28;20226;-57
2022/03/22 09:14:35;;;;;;;15.30;13.13;;;;;;;;;;5072687;28;20265;-57
2022/03/22 09:17:01;;;;;;;14.87;13.27;;;;;;;;;;5073350;28;20207;-57
2022/03/22 09:19:27;;;;;;;17.50;14.70;;;;;;;;;;5073476;28;20239;-57
2022/03/22 09:21:53;;;;;;;18.47;14.10;;;;;;;;;;5073564;28;20192;-57
2022/03/22 09:24:19;;;;;;;18.77;13.90;;;;;;;;;;5072809;28;20618;-56
2022/03/22 09:26:46;;;;;;;14.53;12.97;;;;;;;;;;5073304;28;20228;-56
2022/03/22 09:29:12;;;;;;;18.30;13.50;;;;;;;;;;5072961;28;20212;-55
2022/03/22 09:31:40;;;;;;;16.23;13.70;;;;;;;;;;5073098;28;20201;-56
2022/03/22 09:34:06;;;;;;;18.73;15.27;;;;;;;;;;5073073;28;20201;-56
2022/03/22 09:36:32;;;;;;;19.17;15.50;;;;;;;;;;5072808;28;20216;-57
2022/03/22 09:38:58;;;;;;;19.73;14.53;;;;;;;;;;5073063;28;20273;-58
2022/03/22 09:41:27;;;;;;;17.60;14.50;;;;;;;;;;5072819;28;20709;-59
2022/03/22 09:43:56;;;;;;;18.27;13.07;;;;;;;;;;5072833;28;20680;-59
2022/03/22 09:46:22;;;;;;;18.07;13.57;;;;;;;;;;5072720;28;20206;-59
2022/03/22 09:48:48;;;;;;;16.23;14.53;;;;;;;;;;5072627;28;20211;-59
2022/03/22 09:54:00;;;;;;;16.57;14.10;;;;;;;;;;5072409;28;20213;-59
2022/03/22 09:56:30;;;;;;;18.40;13.63;;;;;;;;;;5072219;28;20231;-59
2022/03/22 09:58:59;;;;;;;16.80;13.67;;;;;;;;;;5072321;28;20204;-59
2022/03/22 10:01:25;;;;;;;19.03;14.43;;;;;;;;;;5072076;28;20257;-59
2022/03/22 10:03:56;;;;;;;16.93;14.23;;;;;;;;;;5072219;28;20192;-59
2022/03/22 10:06:22;;;;;;;15.77;13.63;;;;;;;;;;5071918;28;20708;-58
2022/03/22 10:08:50;;;;;;;19.20;14.30;;;;;;;;;;5072133;28;20214;-58
2022/03/22 10:11:16;;;;;;;16.33;14.03;;;;;;;;;;5072006;28;20410;-59
2022/03/22 10:13:50;;;;;;;17.10;15.30;;;;;;;;;;5071885;28;20228;-59
2022/03/22 10:16:17;;;;;;;20.30;14.53;;;;;;;;;;5072295;28;20199;-58
2022/03/22 10:18:43;;;;;;;26.23;14.87;;;;;;;;;;5072481;28;20201;-58
2022/03/22 10:21:09;;;;;;;18.10;13.57;;;;;;;;;;5072140;28;20204;-59
2022/03/22 10:23:47;;;;;;;18.70;13.60;;;;;;;;;;5071693;28;20765;-59
2022/03/22 10:26:13;;;;;;;18.80;14.27;;;;;;;;;;5071082;28;20198;-60
2022/03/22 10:28:48;;;;;;;15.93;14.23;;;;;;;;;;5072003;28;20212;-58
2022/03/22 10:31:14;;;;;;;16.80;13.33;;;;;;;;;;5072081;28;20203;-59
2022/03/22 10:33:49;;;;;;;19.17;13.47;;;;;;;;;;5069931;28;20228;-59
2022/03/22 10:36:16;;;;;;;18.40;13.43;;;;;;;;;;5071810;28;20209;-58
2022/03/22 10:38:52;;;;;;;15.10;13.50;;;;;;;;;;5072160;28;20257;-58
2022/03/22 10:41:24;;;;;;;18.13;13.70;;;;;;;;;;5071665;28;20255;-59
2022/03/22 10:44:00;;;;;;;15.90;14.20;;;;;;;;;;5071718;28;20198;-59
2022/03/22 10:46:27;;;;;;;16.40;13.57;;;;;;;;;;5071697;28;20678;-58
2022/03/22 10:49:01;;;;;;;14.77;12.73;;;;;;;;;;5071559;28;20200;-59
2022/03/22 10:51:31;;;;;;;16.93;13.80;;;;;;;;;;5071660;28;20251;-59
2022/03/22 10:53:58;;;;;;;17.30;13.83;;;;;;;;;;5071462;28;20327;-59
2022/03/22 10:56:24;;;;;;;15.40;13.27;;;;;;;;;;5071385;28;20708;-59
2022/03/22 10:58:50;;;;;;;22.80;15.53;;;;;;;;;;5071462;28;20546;-59
2022/03/22 11:01:19;;;;;;;16.13;14.47;;;;;;;;;;5071522;28;20203;-59
2022/03/22 11:03:46;;;;;;;16.27;14.53;;;;;;;;;;5071672;28;20280;-59
2022/03/22 11:06:14;;;;;;;19.17;14.40;;;;;;;;;;5071308;28;20739;-59
2022/03/22 11:08:41;;;;;;;18.67;13.90;;;;;;;;;;5071701;28;20683;-60
2022/03/22 11:11:07;;;;;;;15.10;13.50;;;;;;;;;;5071815;28;20207;-59
2022/03/22 11:13:33;;;;;;;16.23;12.33;;;;;;;;;;5071504;28;20224;-60
2022/03/22 11:16:00;;;;;;;16.20;12.60;;;;;;;;;;5071499;28;20262;-58
2022/03/22 11:18:28;;;;;;;15.53;12.77;;;;;;;;;;5071643;28;20241;-59
2022/03/22 11:20:56;;;;;;;14.77;13.13;;;;;;;;;;5071691;28;20199;-60
2022/03/22 11:23:25;;;;;;;16.77;13.33;;;;;;;;;;5071419;28;20211;-58
2022/03/22 11:25:51;;;;;;;15.90;12.90;;;;;;;;;;5071669;28;20202;-58
2022/03/22 11:28:19;;;;;;;16.80;12.23;;;;;;;;;;5071737;28;20196;-58
2022/03/22 11:30:46;;;;;;;14.03;11.80;;;;;;;;;;5071755;28;20196;-59
2022/03/22 11:35:57;;;;;;;15.50;12.67;;;;;;;;;;5071502;28;20694;-59
2022/03/22 11:38:39;;;;;;;18.13;12.57;;;;;;;;;;5073768;28;20289;-60
2022/03/22 11:43:50;;;;;;;15.40;11.90;;;;;;;;;;5075279;28;20194;-59
2022/03/22 11:46:16;;;;;;;16.33;13.47;;;;;;;;;;5075355;28;20601;-58
2022/03/22 11:48:42;;;;;;;15.13;13.43;;;;;;;;;;5075613;28;20221;-58
2022/03/22 11:51:09;;;;;;;15.93;13.10;;;;;;;;;;5075215;28;20554;-59
2022/03/22 11:53:42;;;;;;;14.00;12.13;;;;;;;;;;5075123;28;20211;-59
2022/03/22 11:56:09;;;;;;;23.37;12.47;;;;;;;;;;5074961;28;20296;-59
2022/03/22 11:58:35;;;;;;;15.97;12.27;;;;;;;;;;5075295;28;20666;-59
2022/03/22 12:01:01;;;;;;;17.70;11.37;;;;;;;;;;5074935;28;20206;-59
2022/03/22 12:03:30;;;;;;;14.93;11.00;;;;;;;;;;5074557;28;20199;-60
2022/03/22 12:05:58;;;;;;;16.13;12.50;;;;;;;;;;5074707;28;20657;-59
2022/03/22 12:08:26;;;;;;;14.67;10.60;;;;;;;;;;5074615;28;20670;-58
2022/03/22 12:10:54;;;;;;;13.93;10.30;;;;;;;;;;5074283;28;20205;-60
2022/03/22 12:13:21;;;;;;;14.67;10.10;;;;;;;;;;5074550;28;20245;-56
2022/03/22 12:15:49;;;;;;;18.13;11.07;;;;;;;;;;5074692;28;20205;-56
2022/03/22 12:18:15;;;;;;;17.90;11.93;;;;;;;;;;5074693;28;20209;-60
2022/03/22 12:20:43;;;;;;;14.23;9.70;;;;;;;;;;5074648;28;20212;-59
2022/03/22 12:23:09;;;;;;;13.97;10.63;;;;;;;;;;5074398;28;20554;-59
2022/03/22 12:25:36;;;;;;;15.40;10.37;;;;;;;;;;5074296;28;20735;-60
2022/03/22 12:28:06;;;;;;;14.90;10.43;;;;;;;;;;5074349;28;20277;-60
2022/03/22 12:30:32;;;;;;;13.00;10.63;;;;;;;;;;5074257;28;20625;-59
2022/03/22 12:32:59;;;;;;;14.60;12.27;;;;;;;;;;5074375;28;20281;-59
2022/03/22 12:35:26;;;;;;;14.73;11.97;;;;;;;;;;5072165;28;20198;-59
2022/03/22 12:37:53;;;;;;;14.20;12.40;;;;;;;;;;5073710;28;20222;-60
2022/03/22 12:40:20;;;;;;;16.23;11.60;;;;;;;;;;5073789;28;20571;-60
2022/03/22 12:42:47;;;;;;;17.40;11.33;;;;;;;;;;5073945;28;20193;-60
2022/03/22 12:45:15;;;;;;;12.63;10.50;;;;;;;;;;5073856;28;20252;-60
2022/03/22 12:47:42;;;;;;;17.43;11.57;;;;;;;;;;5073803;28;20193;-61
2022/03/22 12:50:09;;;;;;;16.97;11.37;;;;;;;;;;5072836;28;20289;-59
2022/03/22 12:52:36;;;;;;;14.67;10.73;;;;;;;;;;5073400;28;20217;-60
2022/03/22 12:55:03;;;;;;;13.60;10.67;;;;;;;;;;5073607;28;20202;-59
2022/03/22 12:57:29;;;;;;;16.47;10.90;;;;;;;;;;5073535;28;20204;-60
2022/03/22 12:59:55;;;;;;;14.83;10.33;;;;;;;;;;5073353;28;20507;-60
2022/03/22 13:02:23;;;;;;;12.20;10.87;;;;;;;;;;5073241;28;20655;-60
2022/03/22 13:04:50;;;;;;;16.30;11.23;;;;;;;;;;5073487;28;20213;-61
2022/03/22 13:07:20;;;;;;;16.43;11.30;;;;;;;;;;5073265;28;20632;-58
2022/03/22 13:12:34;;;;;;;13.37;9.90;;;;;;;;;;5073251;28;20232;-60
2022/03/22 13:15:06;;;;;;;17.07;11.97;;;;;;;;;;5073369;28;20197;-59
2022/03/22 13:17:35;;;;;;;18.43;11.60;;;;;;;;;;5073036;28;20200;-60
2022/03/22 13:20:04;;;;;;;18.60;12.20;;;;;;;;;;5073232;28;20205;-58
2022/03/22 13:22:30;;;;;;;14.87;12.30;;;;;;;;;;5073016;28;20198;-58
2022/03/22 13:25:04;;;;;;;15.83;12.30;;;;;;;;;;5072862;28;20241;-59
2022/03/22 13:27:30;;;;;;;15.83;11.63;;;;;;;;;;5072933;28;20205;-60
2022/03/22 13:29:56;;;;;;;15.80;11.87;;;;;;;;;;5073025;28;20190;-59
2022/03/22 13:32:28;;;;;;;11.40;10.23;;;;;;;;;;5072704;28;20298;-60
2022/03/22 13:35:01;;;;;;;16.53;10.87;;;;;;;;;;5072832;28;20208;-59
2022/03/22 13:37:27;;;;;;;13.37;11.33;;;;;;;;;;5072702;28;20204;-59
2022/03/22 13:40:03;;;;;;;25.20;11.83;;;;;;;;;;5072735;28;20285;-60
2022/03/22 13:42:29;;;;;;;14.90;11.33;;;;;;;;;;5072702;28;20192;-59
2022/03/22 13:44:56;;;;;;;14.47;11.67;;;;;;;;;;5072614;28;20203;-60
2022/03/22 13:47:26;;;;;;;14.67;11.17;;;;;;;;;;5072444;28;20722;-58
2022/03/22 13:49:52;;;;;;;12.10;10.10;;;;;;;;;;5072366;28;20199;-59
2022/03/22 13:52:25;;;;;;;14.87;10.30;;;;;;;;;;5072003;28;20223;-59
2022/03/22 13:54:53;;;;;;;13.17;10.50;;;;;;;;;;5072793;28;20259;-59
2022/03/22 13:57:20;;;;;;;15.03;10.73;;;;;;;;;;5072414;28;20592;-59
2022/03/22 13:59:46;;;;;;;16.03;11.23;;;;;;;;;;5072916;28;20221;-59
2022/03/22 14:02:12;;;;;;;12.40;10.43;;;;;;;;;;5072556;28;20613;-59
2022/03/22 14:04:38;;;;;;;14.67;10.90;;;;;;;;;;5072393;28;20280;-59
2022/03/22 14:07:06;;;;;;;12.63;9.70;;;;;;;;;;5072236;28;20249;-65
2022/03/22 14:09:33;;;;;;;13.17;9.93;;;;;;;;;;5072465;28;20203;-59
2022/03/22 14:11:59;;;;;;;13.17;10.13;;;;;;;;;;5072317;28;20284;-57
2022/03/22 14:14:25;;;;;;;11.47;10.10;;;;;;;;;;5072235;28;20207;-55
2022/03/22 14:16:51;;;;;;;16.70;11.40;;;;;;;;;;5072335;28;20547;-56
2022/03/22 14:19:18;;;;;;;17.90;11.70;;;;;;;;;;5072019;28;20299;-60
2022/03/22 14:21:44;;;;;;;17.27;10.23;;;;;;;;;;5072419;28;20200;-57
2022/03/22 14:24:10;;;;;;;12.97;10.30;;;;;;;;;;5066521;28;20726;-56
2022/03/22 14:26:38;;;;;;;11.63;10.37;;;;;;;;;;5072281;28;20227;-57
2022/03/22 14:29:04;;;;;;;11.77;10.03;;;;;;;;;;5072228;28;20216;-57
2022/03/22 14:31:29;;;;;;;20.17;10.73;;;;;;;;;;5072101;28;20188;-57
2022/03/22 14:33:55;;;;;;;14.13;10.33;;;;;;;;;;5072052;28;20760;-56
2022/03/22 14:36:21;;;;;;;14.40;11.60;;;;;;;;;;5071843;28;20208;-56
2022/03/22 14:38:49;;;;;;;18.13;11.97;;;;;;;;;;5071979;28;20196;-56
2022/03/22 14:41:24;;;;;;;22.70;12.47;;;;;;;;;;5071918;28;20669;-57
2022/03/22 14:43:53;;;;;;;16.33;11.53;;;;;;;;;;5072096;28;20195;-57
2022/03/22 14:46:19;;;;;;;16.70;11.33;;;;;;;;;;5071683;28;20205;-55
2022/03/22 14:48:49;;;;;;;14.60;11.50;;;;;;;;;;5071839;28;20295;-55
2022/03/22 14:51:16;;;;;;;15.83;11.77;;;;;;;;;;5071952;28;20204;-56
2022/03/22 14:59:12;;;;;;;19.03;10.57;;;;;;;;;;5070248;28;20207;-58